Time;durP1;ratioP1;P1;durP2;ratioP2;P2;SDS_P1;SDS_P2;PMS_P1;PMS_P2;Temp;Humidity;BMP_temperature;BMP_pressure;BME280_temperature;BME280_humidity;BME280_pressure;Samples;Min_cycle;Max_cycle;Signal;HPM_P1;HPM_P2
2022/04/11 00:00:44;;;;;;;5.37;4.90;;;;;;;;;;5074153;28;20748;-51
2022/04/11 00:03:10;;;;;;;4.77;4.47;;;;;;;;;;5073730;28;20459;-49
2022/04/11 00:05:39;;;;;;;5.00;4.57;;;;;;;;;;5074031;28;20403;-50
2022/04/11 00:08:05;;;;;;;6.37;4.30;;;;;;;;;;5073948;28;20431;-52
2022/04/11 00:10:31;;;;;;;5.37;4.80;;;;;;;;;;5074056;28;20489;-51
2022/04/11 00:13:01;;;;;;;5.17;4.77;;;;;;;;;;5073916;28;20415;-51
2022/04/11 00:15:27;;;;;;;4.93;4.60;;;;;;;;;;5073812;28;20468;-50
2022/04/11 00:17:53;;;;;;;5.43;4.93;;;;;;;;;;5073780;28;20411;-50
2022/04/11 00:20:19;;;;;;;9.53;4.53;;;;;;;;;;5073663;28;20465;-51
2022/04/11 00:22:45;;;;;;;5.27;4.77;;;;;;;;;;5073745;28;20426;-51
2022/04/11 00:25:11;;;;;;;10.63;4.70;;;;;;;;;;5072326;28;20418;-52
2022/04/11 00:27:37;;;;;;;6.00;5.00;;;;;;;;;;5072233;28;20474;-50
2022/04/11 00:30:03;;;;;;;7.73;5.00;;;;;;;;;;5073534;28;20409;-50
2022/04/11 00:32:31;;;;;;;5.30;4.80;;;;;;;;;;5073452;28;20422;-50
2022/04/11 00:34:57;;;;;;;4.60;4.30;;;;;;;;;;5073375;28;20407;-51
2022/04/11 00:37:23;;;;;;;7.73;4.70;;;;;;;;;;5073305;28;20417;-49
2022/04/11 00:39:49;;;;;;;4.50;4.20;;;;;;;;;;5073426;28;20411;-50
2022/04/11 00:42:15;;;;;;;6.13;5.10;;;;;;;;;;5073421;28;20423;-52
2022/04/11 00:44:41;;;;;;;5.30;4.60;;;;;;;;;;5073204;28;20403;-51
2022/04/11 00:47:07;;;;;;;4.73;4.33;;;;;;;;;;5073197;28;20505;-51
2022/04/11 00:49:33;;;;;;;5.67;4.90;;;;;;;;;;5073138;28;20442;-52
2022/04/11 00:51:59;;;;;;;6.57;4.97;;;;;;;;;;5073183;28;20535;-50
2022/04/11 00:54:30;;;;;;;5.20;4.80;;;;;;;;;;5073032;28;20439;-52
2022/04/11 00:56:57;;;;;;;9.90;4.70;;;;;;;;;;5073135;28;20414;-52
2022/04/11 00:59:23;;;;;;;6.20;4.50;;;;;;;;;;5072909;28;20471;-54
2022/04/11 01:01:49;;;;;;;5.10;4.70;;;;;;;;;;5073151;28;20422;-50
2022/04/11 01:04:26;;;;;;;5.47;3.70;;;;;;;;;;5072793;28;20395;-51
2022/04/11 01:06:55;;;;;;;5.10;4.70;;;;;;;;;;5072766;28;20474;-52
2022/04/11 01:09:23;;;;;;;4.87;4.57;;;;;;;;;;5072376;28;20419;-53
2022/04/11 01:11:49;;;;;;;4.27;3.97;;;;;;;;;;5073128;28;20410;-51
2022/04/11 01:14:15;;;;;;;5.13;4.30;;;;;;;;;;5072138;28;20407;-53
2022/04/11 01:16:47;;;;;;;5.00;4.40;;;;;;;;;;5072833;28;20414;-51
2022/04/11 01:19:13;;;;;;;5.10;4.30;;;;;;;;;;5072640;28;20565;-51
2022/04/11 01:21:39;;;;;;;9.20;4.20;;;;;;;;;;5072885;28;20949;-53
2022/04/11 01:24:05;;;;;;;4.50;4.20;;;;;;;;;;5072646;28;20497;-53
2022/04/11 01:26:31;;;;;;;5.33;4.80;;;;;;;;;;5072596;28;21001;-49
2022/04/11 01:28:58;;;;;;;4.97;4.67;;;;;;;;;;5072658;28;20407;-52
2022/04/11 01:31:25;;;;;;;5.93;4.67;;;;;;;;;;5072619;28;20410;-51
2022/04/11 01:33:54;;;;;;;6.60;5.10;;;;;;;;;;5072624;28;20402;-51
2022/04/11 01:36:20;;;;;;;4.90;4.50;;;;;;;;;;5072731;28;20415;-53
2022/04/11 01:38:46;;;;;;;5.00;4.70;;;;;;;;;;5072687;28;20925;-49
2022/04/11 01:41:12;;;;;;;5.37;4.87;;;;;;;;;;5072594;28;20467;-53
2022/04/11 01:43:41;;;;;;;8.27;4.90;;;;;;;;;;5072496;28;20411;-50
2022/04/11 01:46:07;;;;;;;5.10;4.70;;;;;;;;;;5072425;28;20454;-50
2022/04/11 01:48:33;;;;;;;8.67;5.00;;;;;;;;;;5072604;28;20418;-51
2022/04/11 01:50:59;;;;;;;6.17;5.23;;;;;;;;;;5072435;28;20805;-50
2022/04/11 01:53:28;;;;;;;4.53;4.20;;;;;;;;;;5072441;28;20456;-53
2022/04/11 01:55:54;;;;;;;4.70;4.40;;;;;;;;;;5072386;28;20899;-55
2022/04/11 01:58:20;;;;;;;5.33;4.67;;;;;;;;;;5072540;28;20403;-52
2022/04/11 02:00:49;;;;;;;4.90;4.60;;;;;;;;;;5072485;28;20763;-52
2022/04/11 02:03:15;;;;;;;5.33;4.67;;;;;;;;;;5072380;28;20772;-54
2022/04/11 02:05:41;;;;;;;5.37;4.93;;;;;;;;;;5072215;28;20406;-52
2022/04/11 02:08:10;;;;;;;4.93;4.43;;;;;;;;;;5072190;28;20399;-53
2022/04/11 02:10:36;;;;;;;5.80;5.23;;;;;;;;;;5072313;28;20405;-52
2022/04/11 02:13:03;;;;;;;5.00;4.70;;;;;;;;;;5072217;28;20403;-52
2022/04/11 02:15:29;;;;;;;4.97;4.57;;;;;;;;;;5072209;28;20403;-52
2022/04/11 02:17:55;;;;;;;9.97;5.00;;;;;;;;;;5072227;28;20783;-50
2022/04/11 02:20:21;;;;;;;4.63;4.33;;;;;;;;;;5072057;28;20454;-52
2022/04/11 02:22:47;;;;;;;5.40;4.93;;;;;;;;;;5072379;28;20410;-53
2022/04/11 02:25:14;;;;;;;5.80;5.10;;;;;;;;;;5072085;28;20464;-51
2022/04/11 02:27:40;;;;;;;8.97;5.73;;;;;;;;;;5075741;28;20516;-50
2022/04/11 02:30:06;;;;;;;5.53;5.10;;;;;;;;;;5075930;28;20399;-52
2022/04/11 02:32:33;;;;;;;7.20;5.73;;;;;;;;;;5075810;28;20410;-52
2022/04/11 02:34:59;;;;;;;6.63;4.77;;;;;;;;;;5075822;28;20402;-53
2022/04/11 02:37:25;;;;;;;7.63;4.63;;;;;;;;;;5074659;28;20464;-52
2022/04/11 02:39:54;;;;;;;5.13;4.73;;;;;;;;;;5075603;28;20434;-52
2022/04/11 02:42:24;;;;;;;5.27;4.83;;;;;;;;;;5074389;28;20491;-56
2022/04/11 02:44:50;;;;;;;5.30;4.83;;;;;;;;;;5075715;28;20413;-55
2022/04/11 02:47:16;;;;;;;5.80;5.10;;;;;;;;;;5075622;28;20462;-50
2022/04/11 02:49:42;;;;;;;5.70;5.30;;;;;;;;;;5075416;28;20451;-50
2022/04/11 02:52:08;;;;;;;5.50;4.97;;;;;;;;;;5075623;28;20899;-52
2022/04/11 02:54:36;;;;;;;5.97;5.43;;;;;;;;;;5075528;28;20548;-52
2022/04/11 02:57:02;;;;;;;5.87;5.37;;;;;;;;;;5075375;28;20407;-53
2022/04/11 02:59:28;;;;;;;8.57;5.40;;;;;;;;;;5075341;28;20395;-52
2022/04/11 03:01:54;;;;;;;6.13;5.67;;;;;;;;;;5075242;28;20464;-51
2022/04/11 03:04:20;;;;;;;6.30;5.80;;;;;;;;;;5075411;28;20410;-52
2022/04/11 03:06:46;;;;;;;5.20;4.80;;;;;;;;;;5075252;28;20470;-51
2022/04/11 03:09:12;;;;;;;6.60;5.63;;;;;;;;;;5075117;28;20434;-51
2022/04/11 03:11:38;;;;;;;6.03;4.80;;;;;;;;;;5075245;28;20447;-50
2022/04/11 03:14:04;;;;;;;5.43;5.00;;;;;;;;;;5075066;28;20913;-51
2022/04/11 03:16:31;;;;;;;5.90;5.30;;;;;;;;;;5073625;28;20835;-52
2022/04/11 03:18:57;;;;;;;6.20;5.30;;;;;;;;;;5074706;28;20494;-59
2022/04/11 03:21:23;;;;;;;7.60;5.60;;;;;;;;;;5074881;28;20419;-52
2022/04/11 03:23:49;;;;;;;6.67;5.83;;;;;;;;;;5075011;28;20452;-50
2022/04/11 03:26:15;;;;;;;5.67;5.17;;;;;;;;;;5074887;28;20454;-51
2022/04/11 03:28:41;;;;;;;8.37;5.50;;;;;;;;;;5074831;28;20406;-50
2022/04/11 03:31:07;;;;;;;11.00;5.90;;;;;;;;;;5074767;28;20439;-50
2022/04/11 03:33:33;;;;;;;6.00;5.50;;;;;;;;;;5074614;28;20459;-51
2022/04/11 03:35:59;;;;;;;5.70;5.10;;;;;;;;;;5074535;28;20436;-53
2022/04/11 03:38:25;;;;;;;5.70;5.20;;;;;;;;;;5073852;28;20459;-52
2022/04/11 03:40:51;;;;;;;6.60;5.60;;;;;;;;;;5074452;28;20403;-51
2022/04/11 03:43:17;;;;;;;9.80;5.67;;;;;;;;;;5074705;28;20410;-51
2022/04/11 03:45:43;;;;;;;6.20;5.60;;;;;;;;;;5074436;28;20399;-50
2022/04/11 03:48:09;;;;;;;8.50;6.20;;;;;;;;;;5073217;28;20429;-54
2022/04/11 03:50:35;;;;;;;7.30;5.77;;;;;;;;;;5074441;28;20434;-51
2022/04/11 03:53:01;;;;;;;8.00;5.20;;;;;;;;;;5074477;28;20443;-48
2022/04/11 03:55:27;;;;;;;9.67;5.77;;;;;;;;;;5074521;28;20794;-50
2022/04/11 03:57:53;;;;;;;8.10;5.83;;;;;;;;;;5074335;28;20460;-51
2022/04/11 04:00:19;;;;;;;7.33;5.90;;;;;;;;;;5074424;28;20403;-54
2022/04/11 04:02:45;;;;;;;7.20;6.47;;;;;;;;;;5074497;28;20407;-52
2022/04/11 04:05:11;;;;;;;6.80;6.07;;;;;;;;;;5074076;28;20405;-50
2022/04/11 04:07:37;;;;;;;8.10;5.63;;;;;;;;;;5073910;28;20485;-50
2022/04/11 04:10:04;;;;;;;9.47;6.03;;;;;;;;;;5074068;28;20406;-50
2022/04/11 04:12:30;;;;;;;8.90;5.20;;;;;;;;;;5072565;28;20824;-51
2022/04/11 04:14:56;;;;;;;7.33;6.00;;;;;;;;;;5074033;28;20409;-52
2022/04/11 04:17:22;;;;;;;6.83;6.07;;;;;;;;;;5073805;28;20415;-53
2022/04/11 04:19:48;;;;;;;6.23;5.60;;;;;;;;;;5073449;28;20474;-52
2022/04/11 04:22:15;;;;;;;6.90;5.80;;;;;;;;;;5073677;28;20411;-51
2022/04/11 04:24:41;;;;;;;6.70;6.00;;;;;;;;;;5073510;28;20502;-49
2022/04/11 04:27:07;;;;;;;7.70;6.30;;;;;;;;;;5073555;28;20516;-51
2022/04/11 04:29:34;;;;;;;9.63;6.07;;;;;;;;;;5073457;28;20799;-48
2022/04/11 04:32:00;;;;;;;6.53;5.83;;;;;;;;;;5073391;28;20502;-50
2022/04/11 04:34:26;;;;;;;14.57;6.47;;;;;;;;;;5073409;28;20464;-52
2022/04/11 04:36:53;;;;;;;6.60;6.00;;;;;;;;;;5073341;28;20501;-52
2022/04/11 04:39:19;;;;;;;6.50;5.90;;;;;;;;;;5073560;28;20406;-50
2022/04/11 04:41:45;;;;;;;10.73;6.53;;;;;;;;;;5073144;28;20437;-50
2022/04/11 04:44:11;;;;;;;11.43;6.13;;;;;;;;;;5073099;28;20446;-50
2022/04/11 04:46:37;;;;;;;10.33;6.50;;;;;;;;;;5073092;28;20470;-50
2022/04/11 04:49:03;;;;;;;6.80;6.20;;;;;;;;;;5072366;28;20451;-52
2022/04/11 04:51:29;;;;;;;10.40;6.57;;;;;;;;;;5073172;28;20934;-52
2022/04/11 04:53:55;;;;;;;6.63;6.03;;;;;;;;;;5072894;28;20403;-55
2022/04/11 04:56:21;;;;;;;7.43;6.60;;;;;;;;;;5071635;28;20419;-53
2022/04/11 04:58:48;;;;;;;9.40;7.07;;;;;;;;;;5073049;28;20899;-53
2022/04/11 05:01:14;;;;;;;13.57;6.30;;;;;;;;;;5072910;28;20967;-50
2022/04/11 05:03:41;;;;;;;7.17;6.50;;;;;;;;;;5072855;28;20409;-53
2022/04/11 05:06:07;;;;;;;8.20;6.70;;;;;;;;;;5072721;28;20442;-51
2022/04/11 05:08:33;;;;;;;8.30;6.77;;;;;;;;;;5071433;28;20829;-53
2022/04/11 05:11:00;;;;;;;7.17;6.47;;;;;;;;;;5072253;28;20434;-53
2022/04/11 05:13:26;;;;;;;8.17;6.97;;;;;;;;;;5071753;28;20406;-56
2022/04/11 05:15:52;;;;;;;8.13;6.70;;;;;;;;;;5070253;28;20406;-59
2022/04/11 05:18:18;;;;;;;7.17;6.53;;;;;;;;;;5071867;28;20414;-52
2022/04/11 05:20:44;;;;;;;7.30;6.57;;;;;;;;;;5071488;28;20442;-53
2022/04/11 05:23:10;;;;;;;10.33;6.90;;;;;;;;;;5071605;28;20418;-58
2022/04/11 05:25:36;;;;;;;7.90;6.70;;;;;;;;;;5070204;28;20410;-51
2022/04/11 05:28:04;;;;;;;11.70;6.97;;;;;;;;;;5070093;28;20430;-54
2022/04/11 05:30:35;;;;;;;9.37;6.90;;;;;;;;;;5071483;28;20413;-54
2022/04/11 05:33:01;;;;;;;7.60;6.30;;;;;;;;;;5071279;28;20407;-53
2022/04/11 05:35:27;;;;;;;7.63;6.80;;;;;;;;;;5071230;28;20887;-55
2022/04/11 05:37:53;;;;;;;10.87;7.17;;;;;;;;;;5071342;28;20494;-50
2022/04/11 05:40:19;;;;;;;9.37;6.13;;;;;;;;;;5071538;28;20449;-52
2022/04/11 05:42:45;;;;;;;10.87;6.53;;;;;;;;;;5071425;28;20434;-56
2022/04/11 05:45:13;;;;;;;7.30;6.70;;;;;;;;;;5071207;28;20767;-51
2022/04/11 05:47:39;;;;;;;8.70;7.00;;;;;;;;;;5071976;28;20473;-52
2022/04/11 05:50:05;;;;;;;9.37;7.03;;;;;;;;;;5072315;28;20791;-50
2022/04/11 05:52:31;;;;;;;7.37;6.60;;;;;;;;;;5072095;28;20891;-50
2022/04/11 05:55:00;;;;;;;7.27;6.57;;;;;;;;;;5072079;28;20490;-51
2022/04/11 05:57:26;;;;;;;8.10;6.83;;;;;;;;;;5072347;28;20418;-50
2022/04/11 05:59:52;;;;;;;7.53;6.73;;;;;;;;;;5072220;28;20426;-50
2022/04/11 06:02:18;;;;;;;9.90;6.80;;;;;;;;;;5075873;28;20487;-55
2022/04/11 06:04:44;;;;;;;8.13;6.40;;;;;;;;;;5076078;28;20903;-52
2022/04/11 06:07:10;;;;;;;9.30;6.73;;;;;;;;;;5076083;28;20468;-54
2022/04/11 06:09:36;;;;;;;10.10;7.13;;;;;;;;;;5076127;28;20434;-53
2022/04/11 06:12:02;;;;;;;7.33;6.73;;;;;;;;;;5075901;28;20453;-56
2022/04/11 06:14:28;;;;;;;11.00;7.87;;;;;;;;;;5075996;28;20407;-52
2022/04/11 06:16:54;;;;;;;7.77;6.97;;;;;;;;;;5075900;28;20476;-53
2022/04/11 06:19:20;;;;;;;6.80;6.20;;;;;;;;;;5075763;28;20938;-58
2022/04/11 06:21:46;;;;;;;7.10;6.47;;;;;;;;;;5074705;28;20454;-52
2022/04/11 06:24:12;;;;;;;7.20;6.60;;;;;;;;;;5074407;28;20941;-53
2022/04/11 06:26:39;;;;;;;12.63;7.40;;;;;;;;;;5075788;28;20469;-55
2022/04/11 06:29:05;;;;;;;7.80;6.77;;;;;;;;;;5075654;28;20406;-54
2022/04/11 06:31:31;;;;;;;7.30;6.60;;;;;;;;;;5075855;28;20414;-54
2022/04/11 06:33:57;;;;;;;8.33;6.87;;;;;;;;;;5075369;28;20533;-55
2022/04/11 06:36:23;;;;;;;8.50;7.53;;;;;;;;;;5075513;28;20403;-52
2022/04/11 06:38:49;;;;;;;9.00;7.27;;;;;;;;;;5075587;28;20765;-54
2022/04/11 06:41:15;;;;;;;7.83;6.77;;;;;;;;;;5075734;28;20403;-50
2022/04/11 06:43:41;;;;;;;8.57;6.60;;;;;;;;;;5075332;28;20413;-51
2022/04/11 06:46:07;;;;;;;8.67;7.33;;;;;;;;;;5075043;28;20807;-51
2022/04/11 06:48:33;;;;;;;9.63;6.70;;;;;;;;;;5075231;28;20782;-54
2022/04/11 06:50:59;;;;;;;7.37;6.60;;;;;;;;;;5075247;28;20841;-53
2022/04/11 06:53:25;;;;;;;6.90;6.30;;;;;;;;;;5074973;28;20415;-60
2022/04/11 06:55:51;;;;;;;6.77;6.17;;;;;;;;;;5074299;28;20493;-54
2022/04/11 06:58:17;;;;;;;7.47;6.70;;;;;;;;;;5075294;28;20766;-55
2022/04/11 07:00:44;;;;;;;8.50;6.30;;;;;;;;;;5075060;28;20395;-54
2022/04/11 07:03:10;;;;;;;6.93;6.40;;;;;;;;;;5073872;28;20503;-52
2022/04/11 07:05:36;;;;;;;7.17;5.93;;;;;;;;;;5074740;28;20430;-57
2022/04/11 07:08:02;;;;;;;8.80;6.93;;;;;;;;;;5074847;28;20461;-53
2022/04/11 07:10:28;;;;;;;7.17;6.47;;;;;;;;;;5073670;28;20411;-60
2022/04/11 07:12:54;;;;;;;9.30;6.13;;;;;;;;;;5072459;28;20418;-51
2022/04/11 07:15:23;;;;;;;14.60;6.20;;;;;;;;;;5074849;28;20407;-54
2022/04/11 07:17:49;;;;;;;7.93;5.90;;;;;;;;;;5075092;28;20821;-55
2022/04/11 07:20:15;;;;;;;5.90;5.50;;;;;;;;;;5074419;28;20489;-52
2022/04/11 07:22:42;;;;;;;11.20;6.17;;;;;;;;;;5075158;28;20406;-54
2022/04/11 07:25:11;;;;;;;10.67;6.00;;;;;;;;;;5074551;28;20767;-53
2022/04/11 07:27:37;;;;;;;7.37;6.57;;;;;;;;;;5074449;28;20505;-55
2022/04/11 07:30:04;;;;;;;7.27;6.57;;;;;;;;;;5073457;28;20953;-58
2022/04/11 07:32:30;;;;;;;8.63;5.80;;;;;;;;;;5074528;28;20438;-54
2022/04/11 07:34:59;;;;;;;6.70;6.10;;;;;;;;;;5074512;28;20398;-52
2022/04/11 07:37:28;;;;;;;6.27;5.87;;;;;;;;;;5074506;28;20495;-55
2022/04/11 07:39:54;;;;;;;6.80;5.30;;;;;;;;;;5074326;28;20923;-54
2022/04/11 07:42:21;;;;;;;6.83;4.93;;;;;;;;;;5074533;28;21025;-56
2022/04/11 07:44:47;;;;;;;5.70;5.27;;;;;;;;;;5074343;28;20922;-52
2022/04/11 07:47:13;;;;;;;5.40;5.00;;;;;;;;;;5074219;28;20470;-51
2022/04/11 07:49:40;;;;;;;5.87;5.40;;;;;;;;;;5074303;28;20403;-54
2022/04/11 07:52:06;;;;;;;5.83;5.40;;;;;;;;;;5069446;28;20920;-51
2022/04/11 07:54:32;;;;;;;5.10;4.70;;;;;;;;;;5081867;28;20403;-53
2022/04/11 07:56:59;;;;;;;4.80;4.50;;;;;;;;;;5084082;28;21023;-56
2022/04/11 07:59:25;;;;;;;4.20;3.80;;;;;;;;;;5093576;28;20762;-53
2022/04/11 08:01:52;;;;;;;5.20;4.50;;;;;;;;;;5077254;28;20403;-54
2022/04/11 08:04:18;;;;;;;4.10;3.90;;;;;;;;;;5073354;28;20403;-54
2022/04/11 08:06:44;;;;;;;3.73;3.53;;;;;;;;;;5073132;28;20508;-53
2022/04/11 08:09:10;;;;;;;4.43;4.03;;;;;;;;;;5078646;28;20780;-58
2022/04/11 08:11:36;;;;;;;4.40;4.10;;;;;;;;;;5092113;28;20421;-55
2022/04/11 08:14:02;;;;;;;9.40;4.40;;;;;;;;;;5093060;28;20406;-52
2022/04/11 08:16:28;;;;;;;5.20;4.47;;;;;;;;;;5093289;28;20481;-52
2022/04/11 08:18:55;;;;;;;4.37;3.97;;;;;;;;;;5093600;28;20819;-64
2022/04/11 08:21:21;;;;;;;4.30;3.93;;;;;;;;;;5093129;28;20414;-54
2022/04/11 08:23:47;;;;;;;4.07;3.87;;;;;;;;;;5092938;28;20769;-54
2022/04/11 08:26:12;;;;;;;4.90;4.43;;;;;;;;;;5087264;28;20446;-55
2022/04/11 08:28:39;;;;;;;4.13;3.73;;;;;;;;;;5072710;28;20422;-63
2022/04/11 08:31:06;;;;;;;4.83;4.47;;;;;;;;;;5071594;28;20442;-58
2022/04/11 08:33:31;;;;;;;4.90;4.50;;;9.50;90.10;;;;;;5072675;28;20406;-54
2022/04/11 08:35:57;;;;;;;4.30;4.10;;;9.60;90.30;;;;;;5071525;28;20490;-54
2022/04/11 08:38:23;;;;;;;4.53;4.10;;;9.60;90.90;;;;;;5072431;28;20629;-55
2022/04/11 08:40:51;;;;;;;4.27;4.07;;;9.50;86.60;;;;;;5072764;28;20688;-53
2022/04/11 08:43:25;;;;;;;3.97;3.77;;;9.50;82.10;;;;;;5071158;28;20214;-53
2022/04/11 08:45:55;;;;;;;4.13;3.83;;;9.40;79.40;;;;;;5070879;28;20453;-55
2022/04/11 08:48:24;;;;;;;6.43;4.40;;;11.30;83.30;;;;;;5072484;28;20461;-55
2022/04/11 08:50:53;;;;;;;4.30;3.90;;;9.50;82.00;;;;;;5072459;28;20407;-55
2022/04/11 08:53:22;;;;;;;3.93;3.83;;;9.50;82.20;;;;;;5072659;28;20427;-55
2022/04/11 08:55:49;;;;;;;5.10;4.43;;;10.40;81.70;;;;;;5072203;28;20410;-53
2022/04/11 08:58:15;;;;;;;3.90;3.70;;;9.50;79.40;;;;;;5072481;28;20455;-50
2022/04/11 09:00:41;;;;;;;13.23;4.07;;;9.40;79.50;;;;;;5074946;28;20468;-57
2022/04/11 09:03:08;;;;;;;2.90;2.70;;;9.50;78.80;;;;;;5060803;28;20649;-57
2022/04/11 09:05:34;;;;;;;3.70;3.40;;;9.60;74.20;;;;;;5057925;28;20188;-56
2022/04/11 09:08:01;;;;;;;3.77;3.30;;;9.80;73.70;;;;;;5071070;28;20466;-55
2022/04/11 09:10:32;;;;;;;4.57;4.13;;;9.90;75.10;;;;;;5058991;28;20419;-55
2022/04/11 09:13:00;;;;;;;4.60;4.20;;;10.00;73.90;;;;;;5050057;28;20427;-54
2022/04/11 09:15:37;;;;;;;4.30;3.90;;;10.10;75.20;;;;;;5057653;28;20470;-53
2022/04/11 09:18:02;;;;;;;4.83;4.13;;;10.40;75.50;;;;;;5064756;28;20424;-55
2022/04/11 09:20:29;;;;;;;4.20;3.90;;;10.30;72.40;;;;;;5051742;28;20808;-56
2022/04/11 09:22:57;;;;;;;4.03;3.80;;;10.40;71.70;;;;;;5051828;28;20577;-56
2022/04/11 09:25:30;;;;;;;3.77;3.57;;;10.40;70.60;;;;;;5050619;28;20415;-55
2022/04/11 09:28:10;;;;;;;3.97;3.60;;;10.20;69.10;;;;;;5051605;28;20471;-59
2022/04/11 09:30:39;;;;;;;4.17;3.97;;;10.60;69.00;;;;;;5051462;28;20414;-54
2022/04/11 09:33:07;;;;;;;3.67;3.57;;;10.70;69.50;;;;;;5051742;28;20944;-56
2022/04/11 09:35:38;;;;;;;6.40;3.27;;;10.70;65.40;;;;;;5049879;28;20427;-65
2022/04/11 09:38:13;;;;;;;3.83;3.50;;;10.90;64.40;;;;;;5051744;28;20478;-58
2022/04/11 09:40:45;;;;;;;11.83;3.93;;;10.80;62.50;;;;;;5051605;28;20424;-55
2022/04/11 09:43:13;;;;;;;3.50;3.40;;;11.20;61.50;;;;;;5051668;28;20505;-54
2022/04/11 09:45:49;;;;;;;3.40;3.10;;;11.20;59.30;;;;;;5051694;28;20814;-58
2022/04/11 09:48:21;;;;;;;4.10;3.60;;;11.60;56.70;;;;;;5050576;28;20970;-59
2022/04/11 09:50:49;;;;;;;3.70;3.50;;;11.40;59.40;;;;;;5051944;28;20426;-56
2022/04/11 09:53:17;;;;;;;3.70;3.50;;;11.40;55.20;;;;;;5051583;28;20419;-54
2022/04/11 09:55:47;;;;;;;3.70;3.60;;;10.10;54.70;;;;;;5051621;28;20436;-56
2022/04/11 09:58:14;;;;;;;3.57;3.33;;;11.50;55.20;;;;;;5051735;28;20473;-56
2022/04/11 10:00:44;;;;;;;4.47;3.93;;;11.70;57.50;;;;;;5067916;28;20853;-56
2022/04/11 10:03:09;;;;;;;5.27;3.80;;;12.00;58.90;;;;;;5090454;28;20929;-63
2022/04/11 10:05:39;;;;;;;4.00;3.70;;;11.70;60.10;;;;;;5091678;28;20409;-59
2022/04/11 10:08:08;;;;;;;4.00;3.73;;;11.80;60.30;;;;;;5091562;28;20207;-59
2022/04/11 10:10:41;;;;;;;4.60;4.03;;;11.90;60.70;;;;;;5075634;28;20411;-59
2022/04/11 10:13:09;;;;;;;11.07;3.80;;;14.60;61.80;;;;;;5071568;28;20471;-56
2022/04/11 10:15:37;;;;;;;3.97;3.60;;;12.50;58.00;;;;;;5071545;28;20456;-60
2022/04/11 10:18:04;;;;;;;4.00;3.73;;;12.70;58.20;;;;;;5071466;28;20450;-58
2022/04/11 10:20:38;;;;;;;3.57;3.23;;;12.80;56.50;;;;;;5071210;28;20871;-52
2022/04/11 10:23:13;;;;;;;4.33;3.70;;;13.10;54.80;;;;;;5071392;28;20407;-53
2022/04/11 10:25:50;;;;;;;3.63;3.40;;;12.90;55.80;;;;;;5069821;28;20418;-60
2022/04/11 10:28:22;;;;;;;3.60;3.40;;;12.90;55.90;;;;;;5071268;28;20422;-53
2022/04/11 10:31:11;;;;;;;4.17;3.90;;;13.10;57.10;;;;;;5071491;28;20407;-58
2022/04/11 10:33:47;;;;;;;3.70;3.50;;;13.00;57.60;;;;;;5071380;28;20514;-54
2022/04/11 10:36:28;;;;;;;3.60;3.40;;;13.30;56.10;;;;;;5071425;28;20413;-53
2022/04/11 10:39:12;;;;;;;3.63;3.47;;;13.10;54.90;;;;;;5071198;28;20442;-55
2022/04/11 10:41:56;;;;;;;5.47;3.80;;;13.20;56.50;;;;;;5071155;28;20406;-57
2022/04/11 10:44:35;;;;;;;4.10;3.90;;;13.30;57.60;;;;;;5070851;28;20406;-61
2022/04/11 10:47:10;;;;;;;8.47;3.47;;;13.70;56.30;;;;;;5072432;28;20501;-55
2022/04/11 10:49:51;;;;;;;3.70;3.50;;;13.60;57.50;;;;;;5074934;28;20473;-54
2022/04/11 10:52:32;;;;;;;5.23;4.00;;;13.70;57.20;;;;;;5074959;28;20403;-55
2022/04/11 10:55:05;;;;;;;4.10;3.80;;;13.90;54.50;;;;;;5074482;28;20510;-54
2022/04/11 10:57:48;;;;;;;3.83;3.63;;;13.80;55.90;;;;;;5074718;28;20402;-52
2022/04/11 11:00:15;;;;;;;4.23;3.90;;;13.90;54.50;;;;;;5079309;28;20488;-54
2022/04/11 11:05:30;;;;;;;4.00;3.77;;;13.90;55.80;;;;;;5095430;28;20483;-56
2022/04/11 11:08:14;;;;;;;3.60;3.43;;;14.10;54.80;;;;;;5094747;28;20508;-53
2022/04/11 11:10:55;;;;;;;4.03;3.73;;;13.90;54.00;;;;;;5077696;28;20472;-55
2022/04/11 11:13:38;;;;;;;4.03;3.83;;;13.80;55.40;;;;;;5074357;28;20448;-57
2022/04/11 11:16:07;;;;;;;3.70;3.50;;;14.10;54.70;;;;;;5074462;28;20499;-52
2022/04/11 11:18:51;;;;;;;4.10;3.70;;;13.90;53.90;;;;;;5074113;28;20454;-54
2022/04/11 11:21:19;;;;;;;3.73;3.43;;;14.00;54.20;;;;;;5074311;28;20461;-56
2022/04/11 11:24:12;;;;;;;3.50;3.20;;;14.00;54.60;;;;;;5074253;28;20923;-53
2022/04/11 11:27:02;;;;;;;4.20;3.83;;;14.20;55.10;;;;;;5069602;28;20502;-52
2022/04/11 11:29:29;;;;;;;5.43;3.83;;;14.10;53.90;;;;;;5074124;28;20410;-53
2022/04/11 11:32:00;;;;;;;4.57;4.20;;;14.20;55.60;;;;;;5072667;28;20406;-55
2022/04/11 11:34:28;;;;;;;3.87;3.67;;;14.20;54.40;;;;;;5073804;28;20486;-59
2022/04/11 11:37:06;;;;;;;6.23;4.40;;;14.20;54.00;;;;;;5072653;28;20913;-53
2022/04/11 11:39:35;;;;;;;3.90;3.60;;;16.20;55.20;;;;;;5073855;28;20402;-57
2022/04/11 11:42:07;;;;;;;4.80;3.70;;;13.90;54.10;;;;;;5072682;28;20494;-56
2022/04/11 11:44:51;;;;;;;3.77;3.47;;;13.90;54.70;;;;;;5073600;28;20442;-57
2022/04/11 11:47:25;;;;;;;5.97;3.60;;;13.80;54.90;;;;;;5073834;28;20995;-63
2022/04/11 11:50:00;;;;;;;3.90;3.70;;;13.90;55.30;;;;;;5072377;28;20915;-53
2022/04/11 11:52:25;;;;;;;4.50;3.87;;;14.00;53.90;;;;;;5073608;28;20483;-50
2022/04/11 11:54:52;;;;;;;3.40;3.30;;;14.00;53.20;;;;;;5073615;28;20498;-53
2022/04/11 11:57:22;;;;;;;3.87;3.53;;;14.00;54.30;;;;;;5073706;28;20628;-56
2022/04/11 11:59:54;;;;;;;4.20;3.90;;;14.10;54.30;;;;;;5074015;28;20418;-58
2022/04/11 12:05:25;;;;;;;3.63;3.43;;;14.60;54.20;;;;;;5093975;28;21102;-52
2022/04/11 12:08:01;;;;;;;3.80;3.60;;;14.40;53.40;;;;;;5092250;28;20996;-55
2022/04/11 12:10:27;;;;;;;4.20;3.67;;;14.40;53.30;;;;;;5078442;28;20410;-55
2022/04/11 12:12:54;;;;;;;4.73;3.50;;;14.60;54.40;;;;;;5071909;28;20427;-54
2022/04/11 12:15:21;;;;;;;4.13;3.83;;;14.70;54.30;;;;;;5073228;28;20676;-53
2022/04/11 12:17:49;;;;;;;4.63;3.93;;;15.70;55.10;;;;;;5073380;28;20403;-58
2022/04/11 12:20:20;;;;;;;6.20;3.87;;;15.80;54.90;;;;;;5073025;28;20454;-57
2022/04/11 12:23:06;;;;;;;3.87;3.63;;;14.90;54.00;;;;;;5073070;28;20439;-60
2022/04/11 12:25:37;;;;;;;4.07;3.77;;;15.10;54.20;;;;;;5072991;28;20407;-52
2022/04/11 12:28:33;;;;;;;4.63;4.00;;;15.40;51.90;;;;;;5072934;28;20462;-53
2022/04/11 12:31:02;;;;;;;3.73;3.53;;;15.30;51.10;;;;;;5072807;28;20421;-57
2022/04/11 12:33:34;;;;;;;4.30;4.03;;;15.30;51.30;;;;;;5071407;28;20419;-53
2022/04/11 12:36:11;;;;;;;3.63;3.43;;;15.60;54.00;;;;;;5071696;28;20423;-56
2022/04/11 12:38:44;;;;;;;3.70;3.40;;;15.80;52.20;;;;;;5072474;28;20913;-54
2022/04/11 12:41:36;;;;;;;5.37;3.60;;;16.10;51.20;;;;;;5072581;28;20473;-54
2022/04/11 12:44:07;;;;;;;4.13;3.77;;;16.20;51.10;;;;;;5072538;28;20399;-55
2022/04/11 12:46:34;;;;;;;6.33;3.97;;;16.50;51.90;;;;;;5070894;28;20458;-57
2022/04/11 12:49:01;;;;;;;4.27;3.87;;;16.60;52.20;;;;;;5072476;28;20493;-54
2022/04/11 12:51:29;;;;;;;5.30;3.93;;;16.70;53.50;;;;;;5072481;28;20915;-63
2022/04/11 12:54:04;;;;;;;3.30;3.10;;;16.80;51.40;;;;;;5072443;28;20434;-54
2022/04/11 12:56:43;;;;;;;3.60;3.40;;;17.00;53.40;;;;;;5072374;28;20414;-55
2022/04/11 12:59:09;;;;;;;4.40;3.97;;;17.20;63.70;;;;;;5072178;28;20409;-54
2022/04/11 13:02:08;;;;;;;4.23;3.43;;;;;;;;;;5086945;28;20436;-54
2022/04/11 13:04:35;;;;;;;4.33;3.87;;;;;;;;;;5028517;28;20442;-56
2022/04/11 13:07:01;;;;;;;4.17;3.87;;;;;;;;;;5072064;28;20459;-59
2022/04/11 13:09:27;;;;;;;3.30;3.17;;;;;;;;;;5071997;28;20426;-54
2022/04/11 13:11:54;;;;;;;3.87;3.10;;;;;;;;;;5071379;28;20480;-51
2022/04/11 13:14:21;;;;;;;4.33;3.60;;;;;;;;;;5072012;28;20413;-56
2022/04/11 13:19:32;;;;;;;3.50;3.30;;;;;;;;;;5072145;28;20465;-56
2022/04/11 13:21:58;;;;;;;5.50;3.33;;;;;;;;;;5071971;28;20744;-54
2022/04/11 13:24:24;;;;;;;4.77;3.33;;;;;;;;;;5071684;28;20411;-56
2022/04/11 13:26:50;;;;;;;3.00;2.90;;;;;;;;;;5071853;28;20531;-54
2022/04/11 13:29:19;;;;;;;3.53;3.27;;;19.80;42.60;;;;;;5072204;28;20407;-56
2022/04/11 13:31:44;;;;;;;3.43;3.17;;;19.90;42.30;;;;;;5071933;28;20480;-57
2022/04/11 13:34:13;;;;;;;5.17;3.13;;;20.10;41.80;;;;;;5071960;28;20922;-55
2022/04/11 13:36:38;;;;;;;6.20;3.10;;;20.20;42.60;;;;;;5071861;28;20228;-54
2022/04/11 13:39:04;;;;;;;3.07;2.80;;;20.00;42.90;;;;;;5071890;28;20879;-53
2022/04/11 13:41:32;;;;;;;3.63;3.20;;;20.20;42.50;;;;;;5071779;28;20247;-54
2022/04/11 13:43:59;;;;;;;3.10;3.00;;;20.50;42.20;;;;;;5071730;28;20653;-56
2022/04/11 13:46:24;;;;;;;3.10;2.90;;;20.50;41.50;;;;;;5071651;28;21015;-52
2022/04/11 13:48:50;;;;;;;5.80;3.70;;;20.20;42.40;;;;;;5071619;28;20430;-61
2022/04/11 13:51:16;;;;;;;11.17;3.73;;;19.70;43.40;;;;;;5067817;28;20187;-53
2022/04/11 13:53:42;;;;;;;4.10;3.80;;;19.50;43.70;;;;;;5066834;28;20208;-54
2022/04/11 13:56:08;;;;;;;3.23;3.00;;;19.60;43.90;;;;;;5071099;28;20183;-55
2022/04/11 13:58:34;;;;;;;3.30;3.10;;;19.90;43.20;;;;;;5071314;28;20171;-56
2022/04/11 14:01:03;;;;;;;3.30;3.00;;;20.10;43.00;;;;;;5071433;28;20183;-53
2022/04/11 14:03:28;;;;;;;7.03;3.17;;;20.50;42.30;;;;;;5071514;28;20633;-57
2022/04/11 14:05:54;;;;;;;6.93;3.50;;;20.50;42.40;;;;;;5071545;28;20429;-57
2022/04/11 14:08:22;;;;;;;3.50;3.30;;;20.20;42.50;;;;;;5071491;28;20208;-53
2022/04/11 14:10:50;;;;;;;4.70;3.53;;;19.90;42.30;;;;;;5057673;28;20161;-57